createdAt,value
2019-04-23T00:02:30.252Z,99.90
2019-04-23T00:05:02.071Z,98.10
2019-04-23T00:07:46.138Z,97.10
2019-04-23T00:10:12.363Z,97.60
2019-04-23T00:15:16.775Z,98.30
2019-04-23T00:17:42.444Z,98.30
2019-04-23T00:20:14.722Z,99.10
2019-04-23T00:23:01.982Z,99.40
2019-04-23T00:27:59.908Z,99.90
2019-04-23T00:30:36.290Z,99.90
2019-04-23T00:33:05.823Z,99.90
2019-04-23T00:35:32.620Z,99.90
2019-04-23T00:38:05.011Z,99.90
2019-04-23T00:43:13.481Z,99.90
2019-04-23T00:45:39.833Z,99.90
2019-04-23T00:48:14.833Z,99.90
2019-04-23T00:50:44.790Z,99.90
2019-04-23T00:53:12.677Z,99.90
2019-04-23T00:55:42.725Z,99.90
2019-04-23T01:00:47.350Z,99.90
2019-04-23T01:03:17.515Z,99.90
2019-04-23T01:05:46.660Z,99.90
2019-04-23T01:08:21.764Z,99.90
2019-04-23T01:10:56.363Z,99.90
2019-04-23T01:15:59.659Z,99.90
2019-04-23T01:20:54.032Z,99.90
2019-04-23T01:23:41.850Z,99.90
2019-04-23T01:26:26.432Z,99.90
2019-04-23T01:29:01.689Z,99.90
2019-04-23T01:31:33.165Z,99.90
2019-04-23T01:34:04.650Z,99.90
2019-04-23T01:36:54.169Z,99.90
2019-04-23T01:41:41.504Z,99.90
2019-04-23T01:44:14.169Z,99.90
2019-04-23T01:49:14.181Z,99.90
2019-04-23T01:51:49.581Z,99.90
2019-04-23T01:54:19.154Z,99.90
2019-04-23T01:56:49.474Z,99.90
2019-04-23T01:59:18.349Z,99.90
2019-04-23T02:01:51.592Z,99.90
2019-04-23T02:04:22.877Z,99.90
2019-04-23T02:06:53.834Z,99.90
2019-04-23T02:09:26.815Z,99.90
2019-04-23T02:11:57.952Z,99.90
2019-04-23T02:14:33.505Z,99.90
2019-04-23T02:16:56.003Z,99.90
2019-04-23T02:19:29.358Z,99.90
2019-04-23T02:22:21.895Z,99.90
2019-04-23T02:24:41.370Z,99.90
2019-04-23T02:27:15.274Z,99.90
2019-04-23T02:29:56.000Z,99.90
2019-04-23T02:32:23.761Z,99.90
2019-04-23T02:35:01.625Z,99.90
2019-04-23T02:39:57.301Z,99.90
2019-04-23T02:42:43.310Z,99.90
2019-04-23T02:44:56.382Z,99.90
2019-04-23T02:52:33.917Z,99.90
2019-04-23T02:55:11.154Z,99.90
2019-04-23T02:57:39.185Z,99.90
2019-04-23T03:10:10.144Z,99.90
2019-04-23T03:12:41.374Z,99.90
2019-04-23T03:15:21.308Z,99.90
2019-04-23T03:20:59.512Z,99.90
2019-04-23T03:23:44.889Z,99.90
2019-04-23T03:41:23.585Z,99.90
2019-04-23T03:43:48.154Z,99.90
2019-04-23T03:51:17.276Z,99.90
2019-04-23T03:56:22.282Z,99.90
2019-04-23T04:06:42.835Z,99.90
2019-04-23T04:11:19.230Z,99.90
2019-04-23T04:14:04.787Z,99.90
2019-04-23T04:16:26.511Z,99.90
2019-04-23T04:24:25.009Z,99.90
2019-04-23T04:29:11.793Z,99.90
2019-04-23T04:31:42.500Z,99.90
2019-04-23T04:36:45.818Z,99.90
2019-04-23T04:39:03.189Z,99.90
2019-04-23T04:41:40.465Z,99.90
2019-04-23T04:49:14.994Z,99.90
2019-04-23T04:52:08.326Z,99.90
2019-04-23T04:54:21.404Z,99.90
2019-04-23T04:56:43.047Z,99.90
2019-04-23T05:02:00.357Z,99.90
2019-04-23T05:07:02.603Z,99.90
2019-04-23T05:14:45.342Z,99.90
2019-04-23T05:19:36.902Z,99.90
2019-04-23T05:22:02.939Z,99.90
2019-04-23T05:24:28.735Z,99.90
2019-04-23T05:26:55.550Z,99.90
2019-04-23T05:29:23.305Z,99.90
2019-04-23T05:31:54.989Z,99.90
2019-04-23T05:34:29.577Z,99.90
2019-04-23T05:37:00.325Z,99.90
2019-04-23T05:39:35.792Z,99.90
2019-04-23T05:42:04.438Z,99.90
2019-04-23T05:44:43.211Z,99.90
2019-04-23T05:47:15.004Z,99.90
2019-04-23T05:49:41.235Z,99.90
2019-04-23T05:52:09.689Z,99.90
2019-04-23T05:54:43.362Z,99.90
2019-04-23T05:57:09.577Z,99.90
2019-04-23T05:59:42.145Z,99.90
2019-04-23T06:02:13.252Z,99.90
2019-04-23T06:04:44.402Z,99.90
2019-04-23T06:09:52.045Z,99.90
2019-04-23T06:12:13.798Z,99.90
2019-04-23T06:14:52.456Z,99.90
2019-04-23T06:17:21.312Z,99.90
2019-04-23T06:20:01.160Z,99.90
2019-04-23T06:22:28.999Z,99.90
2019-04-23T06:27:26.064Z,99.90
2019-04-23T06:29:59.378Z,99.90
2019-04-23T06:32:35.749Z,99.90
2019-04-23T06:34:56.811Z,99.90
2019-04-23T06:40:05.122Z,99.90
2019-04-23T06:42:34.410Z,99.90
2019-04-23T06:45:25.358Z,99.90
2019-04-23T06:47:36.162Z,99.90
2019-04-23T06:50:03.572Z,99.90
2019-04-23T06:52:33.925Z,99.90
2019-04-23T06:55:15.827Z,99.90
2019-04-23T06:57:44.187Z,99.90
2019-04-23T07:00:13.947Z,99.90
2019-04-23T07:02:44.411Z,99.90
2019-04-23T07:05:11.815Z,99.90
2019-04-23T07:10:23.154Z,99.90
2019-04-23T07:12:47.132Z,99.90
2019-04-23T07:15:33.480Z,99.90
2019-04-23T07:21:00.579Z,99.90
2019-04-23T07:23:29.983Z,99.90
2019-04-23T07:26:02.493Z,99.90
2019-04-23T07:28:34.931Z,99.90
2019-04-23T07:31:03.389Z,99.90
2019-04-23T07:33:39.768Z,99.90
2019-04-23T07:36:04.563Z,99.90
2019-04-23T07:42:03.525Z,99.90
2019-04-23T07:44:36.800Z,99.90
2019-04-23T07:47:18.670Z,99.90
2019-04-23T07:49:47.146Z,99.90
2019-04-23T07:54:44.102Z,99.90
2019-04-23T07:57:15.374Z,99.90
2019-04-23T07:59:51.599Z,99.90
2019-04-23T08:02:22.017Z,99.90
2019-04-23T08:04:57.956Z,99.90
2019-04-23T08:07:18.204Z,99.90
2019-04-23T08:09:53.605Z,99.90
2019-04-23T08:14:55.310Z,99.90
2019-04-23T08:17:22.496Z,99.90
2019-04-23T08:19:56.333Z,99.90
2019-04-23T08:22:25.908Z,99.90
2019-04-23T08:25:05.044Z,99.90
2019-04-23T08:27:34.763Z,99.90
2019-04-23T08:30:04.571Z,99.90
2019-04-23T08:32:35.123Z,99.90
2019-04-23T08:35:14.432Z,99.90
2019-04-23T08:37:56.969Z,99.90
2019-04-23T08:40:17.810Z,99.90
2019-04-23T08:43:03.625Z,99.90
2019-04-23T08:48:15.467Z,99.90
2019-04-23T08:50:40.793Z,99.90
2019-04-23T08:53:23.304Z,99.90
2019-04-23T08:55:44.168Z,99.90
2019-04-23T08:58:14.150Z,99.90
2019-04-23T09:01:02.098Z,99.90
2019-04-23T09:03:30.119Z,99.90
2019-04-23T09:05:52.753Z,99.90
2019-04-23T09:08:27.834Z,99.90
2019-04-23T09:20:53.055Z,96.60
2019-04-23T09:23:34.406Z,98.10
2019-04-23T09:31:11.686Z,96.60
2019-04-23T09:33:46.629Z,96.20
2019-04-23T09:36:13.596Z,96.50
2019-04-23T09:38:55.895Z,96.40
2019-04-23T09:46:48.342Z,95.70
2019-04-23T09:49:20.570Z,94.20
2019-04-23T09:51:59.197Z,94.90
2019-04-23T09:54:21.892Z,92.60
2019-04-23T09:56:47.426Z,93.50
2019-04-23T09:59:28.725Z,95.60
2019-04-23T10:01:45.162Z,93.90
2019-04-23T10:04:08.661Z,91.60
2019-04-23T10:06:32.191Z,91.50
2019-04-23T10:09:02.113Z,90.90
2019-04-23T10:11:32.374Z,92.50
2019-04-23T10:14:02.892Z,92.40
2019-04-23T10:16:34.307Z,92.80
2019-04-23T10:19:03.851Z,93.40
2019-04-23T10:21:33.465Z,91.50
2019-04-23T10:24:03.423Z,92.00
2019-04-23T10:26:34.221Z,91.60
2019-04-23T10:29:09.910Z,92.40
2019-04-23T10:31:40.050Z,92.00
2019-04-23T10:34:10.375Z,89.40
2019-04-23T10:36:42.313Z,92.30
2019-04-23T10:39:19.561Z,91.60
2019-04-23T10:41:46.277Z,90.60
2019-04-23T10:44:17.141Z,91.20
2019-04-23T10:47:16.479Z,85.20
2019-04-23T10:54:52.297Z,88.30
2019-04-23T10:57:18.805Z,88.80
2019-04-23T10:59:53.956Z,81.70
2019-04-23T11:12:42.358Z,82.10
2019-04-23T11:15:24.117Z,85.40
2019-04-23T11:17:46.480Z,80.90
2019-04-23T11:22:45.296Z,83.50
2019-04-23T11:25:29.976Z,79.30
2019-04-23T11:27:55.381Z,81.80
2019-04-23T11:30:31.447Z,73.00
2019-04-23T11:33:08.982Z,78.30
2019-04-23T11:38:06.472Z,80.50
2019-04-23T11:40:25.547Z,79.50
2019-04-23T11:43:06.154Z,78.50
2019-04-23T11:45:32.455Z,79.50
2019-04-23T11:52:56.415Z,76.30
2019-04-23T11:55:41.190Z,83.00
2019-04-23T11:58:14.966Z,80.90
2019-04-23T12:00:46.323Z,80.60
2019-04-23T12:03:26.966Z,80.20
2019-04-23T12:06:21.910Z,76.90
2019-04-23T12:09:15.753Z,80.60
2019-04-23T12:14:24.241Z,82.20
2019-04-23T12:16:57.330Z,80.70
2019-04-23T12:19:46.081Z,78.20
2019-04-23T12:21:52.370Z,78.40
2019-04-23T12:24:40.090Z,79.00
2019-04-23T12:26:56.535Z,80.00
2019-04-23T12:29:27.811Z,81.00
2019-04-23T12:32:28.105Z,81.30
2019-04-23T12:34:49.380Z,82.70
2019-04-23T12:37:27.012Z,79.00
2019-04-23T12:39:57.159Z,70.80
2019-04-23T12:42:41.578Z,76.00
2019-04-23T12:44:58.117Z,79.90
2019-04-23T12:47:40.262Z,76.30
2019-04-23T12:52:25.297Z,73.00
2019-04-23T12:55:09.752Z,68.30
2019-04-23T12:57:29.743Z,66.90
2019-04-23T12:59:58.275Z,75.60
2019-04-23T13:02:43.565Z,69.60
2019-04-23T13:05:00.546Z,72.40
2019-04-23T13:07:38.227Z,73.70
2019-04-23T13:10:22.194Z,67.00
2019-04-23T13:15:11.365Z,70.20
2019-04-23T13:22:49.330Z,72.70
2019-04-23T13:25:19.606Z,74.60
2019-04-23T13:28:02.964Z,72.00
2019-04-23T13:30:35.543Z,71.00
2019-04-23T13:33:02.768Z,75.60
2019-04-23T13:35:42.036Z,72.00
2019-04-23T13:38:15.761Z,71.00
2019-04-23T13:40:36.476Z,71.80
2019-04-23T13:43:00.931Z,70.50
2019-04-23T13:45:56.461Z,70.50
2019-04-23T13:50:42.007Z,67.00
2019-04-23T13:55:36.309Z,69.00
2019-04-23T14:00:58.088Z,68.60
2019-04-23T14:03:19.768Z,70.10
2019-04-23T14:06:10.817Z,70.80
2019-04-23T14:11:10.801Z,66.70
2019-04-23T14:16:20.476Z,70.10
2019-04-23T14:21:20.407Z,61.80
2019-04-23T14:36:37.697Z,66.80
2019-04-23T14:53:48.431Z,65.30
2019-04-23T14:56:22.685Z,66.00
2019-04-23T15:09:04.049Z,67.30
2019-04-23T15:14:01.937Z,64.90
2019-04-23T15:16:39.335Z,65.50
2019-04-23T15:19:35.025Z,70.00
2019-04-23T15:24:30.849Z,70.00
2019-04-23T15:29:09.387Z,65.40
2019-04-23T15:34:47.267Z,72.20
2019-04-23T15:37:21.926Z,65.50
2019-04-23T15:39:42.995Z,64.40
2019-04-23T15:42:12.570Z,66.40
2019-04-23T15:44:45.352Z,64.30
2019-04-23T15:49:48.934Z,67.30
2019-04-23T15:52:10.750Z,69.50
2019-04-23T15:54:51.485Z,70.40
2019-04-23T15:57:30.703Z,69.70
2019-04-23T15:59:47.864Z,68.20
2019-04-23T16:01:50.039Z,68.60
2019-04-23T16:04:20.591Z,63.90
2019-04-23T16:06:51.801Z,65.60
2019-04-23T16:09:57.107Z,62.90
2019-04-23T16:12:16.841Z,61.00
2019-04-23T16:15:03.818Z,61.90
2019-04-23T16:20:06.180Z,70.00
2019-04-23T16:22:24.819Z,71.10
2019-04-23T16:25:08.952Z,68.60
2019-04-23T16:27:19.612Z,70.70
2019-04-23T16:30:09.690Z,67.50
2019-04-23T16:38:10.163Z,71.80
2019-04-23T16:40:33.045Z,73.70
2019-04-23T16:45:31.875Z,70.50
2019-04-23T16:48:20.252Z,69.50
2019-04-23T16:50:56.542Z,73.10
2019-04-23T16:55:52.155Z,72.30
2019-04-23T16:58:23.280Z,73.30
2019-04-23T17:00:55.850Z,73.40
2019-04-23T17:03:21.132Z,75.00
2019-04-23T17:05:50.659Z,73.00
2019-04-23T17:11:06.727Z,75.60
2019-04-23T17:13:20.244Z,77.30
2019-04-23T17:18:29.468Z,74.90
2019-04-23T17:23:31.237Z,74.60
2019-04-23T17:31:18.817Z,76.90
2019-04-23T17:33:38.331Z,78.10
2019-04-23T17:41:26.699Z,81.10
2019-04-23T17:43:59.765Z,80.90
2019-04-23T17:46:27.323Z,81.00
2019-04-23T17:48:56.560Z,83.80
2019-04-23T17:51:28.165Z,82.70
2019-04-23T17:54:10.880Z,83.00
2019-04-23T17:59:04.380Z,85.20
2019-04-23T18:01:41.231Z,86.80
2019-04-23T18:04:18.869Z,86.20
2019-04-23T18:09:16.723Z,90.50
2019-04-23T18:11:29.991Z,91.00
2019-04-23T18:14:09.432Z,91.10
2019-04-23T18:19:12.381Z,91.30
2019-04-23T18:22:06.999Z,92.40
2019-04-23T18:24:50.310Z,93.20
2019-04-23T18:30:08.259Z,93.40
2019-04-23T18:33:14.033Z,93.00
2019-04-23T18:37:49.225Z,93.20
2019-04-23T18:40:21.376Z,93.70
2019-04-23T18:42:57.676Z,94.80
2019-04-23T18:45:32.108Z,94.60
2019-04-23T18:47:59.370Z,94.60
2019-04-23T18:50:42.232Z,95.00
2019-04-23T18:53:02.919Z,95.50
2019-04-23T18:55:50.371Z,95.20
2019-04-23T18:58:03.916Z,95.90
2019-04-23T19:00:51.685Z,95.40
2019-04-23T19:03:30.320Z,96.00
2019-04-23T19:08:51.541Z,96.40
2019-04-23T19:11:05.453Z,96.70
2019-04-23T19:13:39.746Z,96.80
2019-04-23T19:16:03.980Z,96.80
2019-04-23T19:18:45.175Z,96.60
2019-04-23T19:21:18.141Z,96.80
2019-04-23T19:23:50.004Z,96.80
2019-04-23T19:26:27.368Z,97.50
2019-04-23T19:34:02.865Z,98.20
2019-04-23T19:36:40.311Z,98.70
2019-04-23T19:39:03.219Z,99.30
2019-04-23T19:41:43.665Z,99.00
2019-04-23T19:44:08.446Z,99.20
2019-04-23T19:46:49.120Z,99.20
2019-04-23T19:51:41.585Z,99.10
2019-04-23T19:54:21.951Z,99.30
2019-04-23T19:59:13.875Z,99.90
2019-04-23T20:01:53.350Z,99.80
2019-04-23T20:04:21.767Z,99.90
2019-04-23T20:07:13.194Z,99.90
2019-04-23T20:11:57.462Z,99.90
2019-04-23T20:14:18.235Z,99.90
2019-04-23T20:17:17.602Z,99.90
2019-04-23T20:19:32.276Z,99.90
2019-04-23T20:24:28.538Z,99.90
2019-04-23T20:27:06.147Z,99.90
2019-04-23T20:29:52.181Z,99.90
2019-04-23T20:34:56.608Z,99.90
2019-04-23T20:37:23.340Z,99.90
2019-04-23T20:39:56.798Z,99.90
2019-04-23T20:47:15.586Z,99.90
2019-04-23T20:52:14.755Z,99.90
2019-04-23T20:57:45.556Z,99.90
2019-04-23T21:00:32.543Z,99.90
2019-04-23T21:03:18.165Z,99.90
2019-04-23T21:05:26.154Z,99.90
2019-04-23T21:10:34.005Z,99.90
2019-04-23T21:25:40.730Z,99.90
2019-04-23T21:33:15.769Z,99.90
2019-04-23T21:40:15.432Z,99.90
2019-04-23T21:41:32.965Z,99.90
2019-04-23T21:46:20.595Z,99.90
2019-04-23T21:53:53.183Z,99.90
2019-04-23T21:56:28.001Z,99.90
2019-04-23T22:06:36.953Z,99.90
2019-04-23T22:09:08.746Z,99.90
2019-04-23T22:16:52.033Z,99.90
2019-04-23T22:19:14.953Z,99.90
2019-04-23T22:24:05.615Z,99.90
2019-04-23T22:26:38.110Z,99.90
2019-04-23T22:34:17.200Z,99.90
2019-04-23T22:39:17.817Z,99.90
2019-04-23T22:41:56.056Z,99.90
2019-04-23T22:44:22.615Z,99.90
2019-04-23T22:46:59.561Z,99.90
2019-04-23T22:52:02.622Z,99.90
2019-04-23T22:54:22.965Z,99.90
2019-04-23T22:57:04.719Z,99.90
2019-04-23T23:02:12.837Z,99.90
2019-04-23T23:04:42.188Z,99.90
2019-04-23T23:07:17.819Z,99.90
2019-04-23T23:09:49.124Z,99.90
2019-04-23T23:12:36.546Z,99.90
2019-04-23T23:14:48.784Z,99.90
2019-04-23T23:17:16.261Z,99.90
2019-04-23T23:20:05.864Z,99.90
2019-04-23T23:22:28.113Z,99.90
2019-04-23T23:24:46.119Z,99.90
2019-04-23T23:27:31.617Z,99.90
2019-04-23T23:29:58.149Z,99.90
2019-04-23T23:32:23.279Z,99.90
2019-04-23T23:37:20.714Z,99.90
2019-04-23T23:39:56.980Z,99.90
2019-04-23T23:42:28.177Z,99.90
2019-04-23T23:45:02.137Z,99.90
2019-04-23T23:47:19.673Z,99.90
2019-04-23T23:50:04.276Z,99.90
2019-04-23T23:52:32.862Z,99.90
2019-04-23T23:55:07.760Z,99.90
